sensor_id;sensor_type;location;lat;lon;timestamp;P1;durP1;ratioP1;P2;durP2;ratioP2
71048;SDS011;58704;53.358;-6.238;2023-04-05T00:02:05;5.53;;;3.73;;
71048;SDS011;58704;53.358;-6.238;2023-04-05T00:04:30;5.82;;;3.25;;
71048;SDS011;58704;53.358;-6.238;2023-04-05T00:06:58;6.23;;;3.30;;
71048;SDS011;58704;53.358;-6.238;2023-04-05T00:09:26;5.53;;;3.63;;
71048;SDS011;58704;53.358;-6.238;2023-04-05T00:11:52;5.90;;;3.10;;
71048;SDS011;58704;53.358;-6.238;2023-04-05T00:14:18;5.90;;;1.93;;
71048;SDS011;58704;53.358;-6.238;2023-04-05T00:16:43;6.67;;;1.67;;
71048;SDS011;58704;53.358;-6.238;2023-04-05T00:19:09;2.70;;;1.33;;
71048;SDS011;58704;53.358;-6.238;2023-04-05T00:21:39;3.83;;;2.00;;
71048;SDS011;58704;53.358;-6.238;2023-04-05T00:24:04;3.07;;;1.77;;
71048;SDS011;58704;53.358;-6.238;2023-04-05T00:26:31;3.53;;;1.45;;
71048;SDS011;58704;53.358;-6.238;2023-04-05T00:28:56;4.33;;;1.37;;
71048;SDS011;58704;53.358;-6.238;2023-04-05T00:31:22;2.47;;;1.03;;
71048;SDS011;58704;53.358;-6.238;2023-04-05T00:33:47;1.50;;;1.40;;
71048;SDS011;58704;53.358;-6.238;2023-04-05T00:36:17;1.52;;;1.15;;
71048;SDS011;58704;53.358;-6.238;2023-04-05T00:38:44;3.03;;;1.10;;
71048;SDS011;58704;53.358;-6.238;2023-04-05T00:41:11;1.63;;;1.08;;
71048;SDS011;58704;53.358;-6.238;2023-04-05T00:43:37;2.15;;;0.90;;
71048;SDS011;58704;53.358;-6.238;2023-04-05T00:46:03;2.38;;;1.20;;
71048;SDS011;58704;53.358;-6.238;2023-04-05T00:48:30;1.13;;;0.70;;
71048;SDS011;58704;53.358;-6.238;2023-04-05T00:50:55;1.88;;;0.85;;
71048;SDS011;58704;53.358;-6.238;2023-04-05T00:53:21;2.00;;;1.10;;
71048;SDS011;58704;53.358;-6.238;2023-04-05T00:55:48;1.67;;;0.77;;
71048;SDS011;58704;53.358;-6.238;2023-04-05T00:58:16;2.10;;;0.70;;
71048;SDS011;58704;53.358;-6.238;2023-04-05T01:04:14;1.40;;;0.90;;
71048;SDS011;58704;53.358;-6.238;2023-04-05T01:06:38;1.20;;;0.90;;
71048;SDS011;58704;53.358;-6.238;2023-04-05T01:09:25;0.90;;;0.77;;
71048;SDS011;58704;53.358;-6.238;2023-04-05T01:12:16;1.17;;;0.73;;
71048;SDS011;58704;53.358;-6.238;2023-04-05T01:14:46;0.88;;;0.50;;
71048;SDS011;58704;53.358;-6.238;2023-04-05T01:17:21;1.60;;;0.80;;
71048;SDS011;58704;53.358;-6.238;2023-04-05T01:19:53;1.17;;;0.80;;
71048;SDS011;58704;53.358;-6.238;2023-04-05T01:30:31;0.60;;;0.60;;
71048;SDS011;58704;53.358;-6.238;2023-04-05T01:35:51;1.50;;;0.80;;
71048;SDS011;58704;53.358;-6.238;2023-04-05T01:38:21;1.67;;;0.80;;
71048;SDS011;58704;53.358;-6.238;2023-04-05T01:40:49;0.80;;;0.80;;
71048;SDS011;58704;53.358;-6.238;2023-04-05T01:43:15;0.70;;;0.70;;
71048;SDS011;58704;53.358;-6.238;2023-04-05T01:45:41;0.97;;;0.67;;
71048;SDS011;58704;53.358;-6.238;2023-04-05T01:48:07;1.40;;;0.70;;
71048;SDS011;58704;53.358;-6.238;2023-04-05T01:50:32;2.77;;;1.07;;
71048;SDS011;58704;53.358;-6.238;2023-04-05T01:52:58;0.90;;;0.70;;
71048;SDS011;58704;53.358;-6.238;2023-04-05T01:55:23;1.23;;;0.83;;
71048;SDS011;58704;53.358;-6.238;2023-04-05T01:57:49;0.80;;;0.70;;
71048;SDS011;58704;53.358;-6.238;2023-04-05T02:00:14;0.87;;;0.87;;
71048;SDS011;58704;53.358;-6.238;2023-04-05T02:02:40;1.00;;;1.00;;
71048;SDS011;58704;53.358;-6.238;2023-04-05T02:05:05;1.23;;;0.90;;
71048;SDS011;58704;53.358;-6.238;2023-04-05T02:07:31;1.58;;;1.00;;
71048;SDS011;58704;53.358;-6.238;2023-04-05T02:09:56;0.80;;;0.70;;
71048;SDS011;58704;53.358;-6.238;2023-04-05T02:12:22;3.87;;;0.80;;
71048;SDS011;58704;53.358;-6.238;2023-04-05T02:14:47;2.00;;;1.10;;
71048;SDS011;58704;53.358;-6.238;2023-04-05T02:17:12;1.00;;;0.83;;
71048;SDS011;58704;53.358;-6.238;2023-04-05T02:19:38;0.80;;;0.80;;
71048;SDS011;58704;53.358;-6.238;2023-04-05T02:22:10;1.65;;;0.90;;
71048;SDS011;58704;53.358;-6.238;2023-04-05T02:24:35;1.57;;;0.90;;
71048;SDS011;58704;53.358;-6.238;2023-04-05T02:27:01;1.57;;;0.60;;
71048;SDS011;58704;53.358;-6.238;2023-04-05T02:29:26;1.47;;;0.70;;
71048;SDS011;58704;53.358;-6.238;2023-04-05T02:31:52;1.33;;;0.70;;
71048;SDS011;58704;53.358;-6.238;2023-04-05T02:34:17;0.70;;;0.70;;
71048;SDS011;58704;53.358;-6.238;2023-04-05T02:36:43;0.63;;;0.63;;
71048;SDS011;58704;53.358;-6.238;2023-04-05T02:39:08;0.70;;;0.70;;
71048;SDS011;58704;53.358;-6.238;2023-04-05T02:41:34;3.40;;;0.80;;
71048;SDS011;58704;53.358;-6.238;2023-04-05T02:44:00;1.10;;;0.70;;
71048;SDS011;58704;53.358;-6.238;2023-04-05T02:46:25;0.70;;;0.70;;
71048;SDS011;58704;53.358;-6.238;2023-04-05T02:48:51;1.13;;;0.60;;
71048;SDS011;58704;53.358;-6.238;2023-04-05T02:51:16;0.70;;;0.70;;
71048;SDS011;58704;53.358;-6.238;2023-04-05T02:53:42;0.95;;;0.90;;
71048;SDS011;58704;53.358;-6.238;2023-04-05T02:56:09;1.07;;;0.50;;
71048;SDS011;58704;53.358;-6.238;2023-04-05T02:58:37;3.20;;;0.63;;
71048;SDS011;58704;53.358;-6.238;2023-04-05T03:01:03;1.85;;;0.68;;
71048;SDS011;58704;53.358;-6.238;2023-04-05T03:03:31;0.65;;;0.65;;
71048;SDS011;58704;53.358;-6.238;2023-04-05T03:06:01;1.23;;;0.70;;
71048;SDS011;58704;53.358;-6.238;2023-04-05T03:08:46;0.80;;;0.80;;
71048;SDS011;58704;53.358;-6.238;2023-04-05T03:11:13;1.00;;;0.80;;
71048;SDS011;58704;53.358;-6.238;2023-04-05T03:13:38;0.63;;;0.60;;
71048;SDS011;58704;53.358;-6.238;2023-04-05T03:16:04;0.77;;;0.50;;
71048;SDS011;58704;53.358;-6.238;2023-04-05T03:18:30;2.80;;;0.60;;
71048;SDS011;58704;53.358;-6.238;2023-04-05T03:20:56;0.43;;;0.43;;
71048;SDS011;58704;53.358;-6.238;2023-04-05T03:23:23;0.60;;;0.60;;
71048;SDS011;58704;53.358;-6.238;2023-04-05T03:25:53;0.95;;;0.73;;
71048;SDS011;58704;53.358;-6.238;2023-04-05T03:28:20;1.10;;;0.80;;
71048;SDS011;58704;53.358;-6.238;2023-04-05T03:30:47;1.57;;;0.77;;
71048;SDS011;58704;53.358;-6.238;2023-04-05T03:33:13;0.68;;;0.68;;
71048;SDS011;58704;53.358;-6.238;2023-04-05T03:35:38;0.70;;;0.70;;
71048;SDS011;58704;53.358;-6.238;2023-04-05T03:38:03;1.03;;;0.73;;
71048;SDS011;58704;53.358;-6.238;2023-04-05T03:40:29;1.88;;;0.82;;
71048;SDS011;58704;53.358;-6.238;2023-04-05T03:42:55;0.83;;;0.80;;
71048;SDS011;58704;53.358;-6.238;2023-04-05T03:45:20;2.10;;;0.57;;
71048;SDS011;58704;53.358;-6.238;2023-04-05T03:47:46;1.58;;;0.80;;
71048;SDS011;58704;53.358;-6.238;2023-04-05T03:50:11;4.60;;;0.80;;
71048;SDS011;58704;53.358;-6.238;2023-04-05T03:52:37;0.70;;;0.70;;
71048;SDS011;58704;53.358;-6.238;2023-04-05T03:55:02;0.70;;;0.70;;
71048;SDS011;58704;53.358;-6.238;2023-04-05T03:57:28;0.93;;;0.80;;
71048;SDS011;58704;53.358;-6.238;2023-04-05T03:59:54;1.98;;;0.90;;
71048;SDS011;58704;53.358;-6.238;2023-04-05T04:02:19;2.10;;;0.70;;
71048;SDS011;58704;53.358;-6.238;2023-04-05T04:04:45;2.10;;;0.80;;
71048;SDS011;58704;53.358;-6.238;2023-04-05T04:07:11;2.20;;;0.90;;
71048;SDS011;58704;53.358;-6.238;2023-04-05T04:09:37;2.67;;;1.00;;
71048;SDS011;58704;53.358;-6.238;2023-04-05T04:12:02;1.20;;;1.10;;
71048;SDS011;58704;53.358;-6.238;2023-04-05T04:14:28;1.00;;;0.83;;
71048;SDS011;58704;53.358;-6.238;2023-04-05T04:16:53;2.70;;;0.73;;
71048;SDS011;58704;53.358;-6.238;2023-04-05T04:19:18;0.80;;;0.50;;
71048;SDS011;58704;53.358;-6.238;2023-04-05T04:21:44;2.13;;;0.90;;
71048;SDS011;58704;53.358;-6.238;2023-04-05T04:24:10;2.53;;;1.90;;
71048;SDS011;58704;53.358;-6.238;2023-04-05T04:26:46;1.35;;;0.75;;
71048;SDS011;58704;53.358;-6.238;2023-04-05T04:29:12;3.00;;;1.27;;
71048;SDS011;58704;53.358;-6.238;2023-04-05T04:31:40;1.40;;;0.85;;
71048;SDS011;58704;53.358;-6.238;2023-04-05T04:34:09;1.23;;;0.82;;
71048;SDS011;58704;53.358;-6.238;2023-04-05T04:36:38;1.37;;;1.00;;
71048;SDS011;58704;53.358;-6.238;2023-04-05T04:39:07;1.10;;;0.65;;
71048;SDS011;58704;53.358;-6.238;2023-04-05T04:41:34;1.17;;;1.10;;
71048;SDS011;58704;53.358;-6.238;2023-04-05T04:44:00;2.47;;;1.00;;
71048;SDS011;58704;53.358;-6.238;2023-04-05T04:46:33;2.80;;;0.90;;
71048;SDS011;58704;53.358;-6.238;2023-04-05T04:49:06;0.80;;;0.80;;
71048;SDS011;58704;53.358;-6.238;2023-04-05T04:51:32;1.15;;;1.00;;
71048;SDS011;58704;53.358;-6.238;2023-04-05T04:53:57;1.13;;;0.87;;
71048;SDS011;58704;53.358;-6.238;2023-04-05T04:56:23;1.20;;;0.93;;
71048;SDS011;58704;53.358;-6.238;2023-04-05T04:58:48;1.95;;;0.75;;
71048;SDS011;58704;53.358;-6.238;2023-04-05T05:01:13;1.17;;;0.93;;
71048;SDS011;58704;53.358;-6.238;2023-04-05T05:03:39;3.40;;;1.13;;
71048;SDS011;58704;53.358;-6.238;2023-04-05T05:06:05;3.75;;;2.15;;
71048;SDS011;58704;53.358;-6.238;2023-04-05T05:08:30;1.27;;;1.17;;
71048;SDS011;58704;53.358;-6.238;2023-04-05T05:10:56;0.87;;;0.83;;
71048;SDS011;58704;53.358;-6.238;2023-04-05T05:13:21;1.20;;;0.80;;
71048;SDS011;58704;53.358;-6.238;2023-04-05T05:15:47;1.00;;;0.70;;
71048;SDS011;58704;53.358;-6.238;2023-04-05T05:18:12;1.30;;;0.80;;
71048;SDS011;58704;53.358;-6.238;2023-04-05T05:20:38;1.58;;;0.90;;
71048;SDS011;58704;53.358;-6.238;2023-04-05T05:23:03;0.80;;;0.77;;
71048;SDS011;58704;53.358;-6.238;2023-04-05T05:25:29;1.57;;;0.87;;
71048;SDS011;58704;53.358;-6.238;2023-04-05T05:27:55;0.95;;;0.68;;
71048;SDS011;58704;53.358;-6.238;2023-04-05T05:30:21;0.70;;;0.70;;
71048;SDS011;58704;53.358;-6.238;2023-04-05T05:32:46;1.00;;;1.00;;
71048;SDS011;58704;53.358;-6.238;2023-04-05T05:35:12;1.73;;;0.82;;
71048;SDS011;58704;53.358;-6.238;2023-04-05T05:37:38;1.17;;;0.70;;
71048;SDS011;58704;53.358;-6.238;2023-04-05T05:40:03;1.30;;;1.00;;
71048;SDS011;58704;53.358;-6.238;2023-04-05T05:42:29;0.67;;;0.67;;
71048;SDS011;58704;53.358;-6.238;2023-04-05T05:44:56;0.93;;;0.70;;
71048;SDS011;58704;53.358;-6.238;2023-04-05T05:47:22;2.33;;;0.95;;
71048;SDS011;58704;53.358;-6.238;2023-04-05T05:49:47;0.70;;;0.70;;
71048;SDS011;58704;53.358;-6.238;2023-04-05T05:52:16;0.80;;;0.80;;
71048;SDS011;58704;53.358;-6.238;2023-04-05T05:54:41;1.93;;;0.90;;
71048;SDS011;58704;53.358;-6.238;2023-04-05T05:57:06;1.40;;;0.80;;
71048;SDS011;58704;53.358;-6.238;2023-04-05T05:59:32;1.13;;;0.80;;
71048;SDS011;58704;53.358;-6.238;2023-04-05T06:01:57;1.17;;;0.65;;
71048;SDS011;58704;53.358;-6.238;2023-04-05T06:04:22;3.57;;;0.87;;
71048;SDS011;58704;53.358;-6.238;2023-04-05T06:06:48;1.47;;;0.90;;
71048;SDS011;58704;53.358;-6.238;2023-04-05T06:09:14;2.15;;;1.02;;
71048;SDS011;58704;53.358;-6.238;2023-04-05T06:11:40;2.40;;;1.13;;
71048;SDS011;58704;53.358;-6.238;2023-04-05T06:14:05;1.45;;;1.10;;
71048;SDS011;58704;53.358;-6.238;2023-04-05T06:16:31;1.43;;;0.80;;
71048;SDS011;58704;53.358;-6.238;2023-04-05T06:18:56;2.83;;;1.10;;
71048;SDS011;58704;53.358;-6.238;2023-04-05T06:21:22;2.88;;;1.42;;
71048;SDS011;58704;53.358;-6.238;2023-04-05T06:23:47;1.33;;;0.90;;
71048;SDS011;58704;53.358;-6.238;2023-04-05T06:26:17;4.32;;;1.48;;
71048;SDS011;58704;53.358;-6.238;2023-04-05T06:28:47;3.17;;;1.20;;
71048;SDS011;58704;53.358;-6.238;2023-04-05T06:31:13;1.23;;;1.00;;
71048;SDS011;58704;53.358;-6.238;2023-04-05T06:33:42;1.52;;;1.02;;
71048;SDS011;58704;53.358;-6.238;2023-04-05T06:36:08;2.47;;;1.10;;
71048;SDS011;58704;53.358;-6.238;2023-04-05T06:38:34;2.67;;;1.30;;
71048;SDS011;58704;53.358;-6.238;2023-04-05T06:41:00;3.28;;;1.38;;
71048;SDS011;58704;53.358;-6.238;2023-04-05T06:43:26;2.93;;;1.40;;
71048;SDS011;58704;53.358;-6.238;2023-04-05T06:45:53;3.30;;;1.00;;
71048;SDS011;58704;53.358;-6.238;2023-04-05T06:48:20;6.15;;;1.20;;
71048;SDS011;58704;53.358;-6.238;2023-04-05T06:50:45;2.08;;;1.08;;
71048;SDS011;58704;53.358;-6.238;2023-04-05T06:53:11;2.37;;;1.10;;
71048;SDS011;58704;53.358;-6.238;2023-04-05T06:55:39;3.92;;;1.30;;
71048;SDS011;58704;53.358;-6.238;2023-04-05T06:58:06;2.42;;;0.90;;
71048;SDS011;58704;53.358;-6.238;2023-04-05T07:00:31;2.10;;;1.30;;
71048;SDS011;58704;53.358;-6.238;2023-04-05T07:02:57;2.30;;;1.00;;
71048;SDS011;58704;53.358;-6.238;2023-04-05T07:05:22;5.53;;;1.60;;
71048;SDS011;58704;53.358;-6.238;2023-04-05T07:07:47;2.97;;;1.37;;
71048;SDS011;58704;53.358;-6.238;2023-04-05T07:10:13;1.25;;;0.90;;
71048;SDS011;58704;53.358;-6.238;2023-04-05T07:12:38;3.80;;;1.40;;
71048;SDS011;58704;53.358;-6.238;2023-04-05T07:15:04;4.57;;;1.70;;
71048;SDS011;58704;53.358;-6.238;2023-04-05T07:17:30;2.58;;;1.00;;
71048;SDS011;58704;53.358;-6.238;2023-04-05T07:19:55;6.93;;;1.20;;
71048;SDS011;58704;53.358;-6.238;2023-04-05T07:22:21;6.07;;;1.23;;
71048;SDS011;58704;53.358;-6.238;2023-04-05T07:24:46;4.77;;;1.50;;
71048;SDS011;58704;53.358;-6.238;2023-04-05T07:27:12;6.05;;;1.60;;
71048;SDS011;58704;53.358;-6.238;2023-04-05T07:29:38;6.03;;;1.30;;
71048;SDS011;58704;53.358;-6.238;2023-04-05T07:32:06;3.40;;;1.20;;
71048;SDS011;58704;53.358;-6.238;2023-04-05T07:34:32;5.13;;;1.10;;
71048;SDS011;58704;53.358;-6.238;2023-04-05T07:36:58;8.10;;;1.40;;
71048;SDS011;58704;53.358;-6.238;2023-04-05T07:39:24;4.53;;;1.40;;
71048;SDS011;58704;53.358;-6.238;2023-04-05T07:41:50;3.22;;;1.70;;
71048;SDS011;58704;53.358;-6.238;2023-04-05T07:44:15;4.60;;;1.77;;
71048;SDS011;58704;53.358;-6.238;2023-04-05T07:46:41;4.27;;;1.80;;
71048;SDS011;58704;53.358;-6.238;2023-04-05T07:49:08;3.00;;;1.42;;
71048;SDS011;58704;53.358;-6.238;2023-04-05T07:51:37;5.13;;;1.30;;
71048;SDS011;58704;53.358;-6.238;2023-04-05T07:54:02;5.07;;;1.43;;
71048;SDS011;58704;53.358;-6.238;2023-04-05T07:56:29;6.60;;;1.30;;
71048;SDS011;58704;53.358;-6.238;2023-04-05T07:58:55;5.70;;;1.50;;
71048;SDS011;58704;53.358;-6.238;2023-04-05T08:01:21;5.23;;;1.47;;
71048;SDS011;58704;53.358;-6.238;2023-04-05T08:03:51;6.35;;;1.80;;
71048;SDS011;58704;53.358;-6.238;2023-04-05T08:06:16;3.40;;;1.60;;
71048;SDS011;58704;53.358;-6.238;2023-04-05T08:08:42;4.93;;;1.57;;
71048;SDS011;58704;53.358;-6.238;2023-04-05T08:11:08;6.88;;;1.60;;
71048;SDS011;58704;53.358;-6.238;2023-04-05T08:13:34;4.70;;;1.40;;
71048;SDS011;58704;53.358;-6.238;2023-04-05T08:16:07;9.23;;;1.50;;
71048;SDS011;58704;53.358;-6.238;2023-04-05T08:18:34;3.75;;;1.52;;
71048;SDS011;58704;53.358;-6.238;2023-04-05T08:20:59;4.35;;;1.73;;
71048;SDS011;58704;53.358;-6.238;2023-04-05T08:23:28;6.43;;;2.40;;
71048;SDS011;58704;53.358;-6.238;2023-04-05T08:25:54;3.87;;;1.40;;
71048;SDS011;58704;53.358;-6.238;2023-04-05T08:28:20;9.95;;;1.73;;
71048;SDS011;58704;53.358;-6.238;2023-04-05T08:30:53;7.72;;;2.20;;
71048;SDS011;58704;53.358;-6.238;2023-04-05T08:33:23;6.10;;;1.70;;
71048;SDS011;58704;53.358;-6.238;2023-04-05T08:35:56;4.43;;;1.60;;
71048;SDS011;58704;53.358;-6.238;2023-04-05T08:38:32;6.35;;;1.73;;
71048;SDS011;58704;53.358;-6.238;2023-04-05T08:41:25;4.85;;;1.55;;
71048;SDS011;58704;53.358;-6.238;2023-04-05T08:44:02;3.38;;;1.58;;
71048;SDS011;58704;53.358;-6.238;2023-04-05T08:46:30;6.17;;;1.90;;
71048;SDS011;58704;53.358;-6.238;2023-04-05T08:49:12;5.50;;;1.70;;
71048;SDS011;58704;53.358;-6.238;2023-04-05T08:51:40;6.32;;;1.73;;
71048;SDS011;58704;53.358;-6.238;2023-04-05T08:54:08;8.63;;;1.67;;
71048;SDS011;58704;53.358;-6.238;2023-04-05T08:56:45;9.73;;;1.90;;
71048;SDS011;58704;53.358;-6.238;2023-04-05T08:59:18;4.03;;;1.50;;
71048;SDS011;58704;53.358;-6.238;2023-04-05T09:01:46;4.22;;;1.70;;
71048;SDS011;58704;53.358;-6.238;2023-04-05T09:04:21;6.80;;;1.40;;
71048;SDS011;58704;53.358;-6.238;2023-04-05T09:06:51;3.47;;;1.30;;
71048;SDS011;58704;53.358;-6.238;2023-04-05T09:09:19;3.28;;;1.48;;
71048;SDS011;58704;53.358;-6.238;2023-04-05T09:11:45;6.47;;;1.40;;
71048;SDS011;58704;53.358;-6.238;2023-04-05T09:14:11;3.47;;;1.20;;
71048;SDS011;58704;53.358;-6.238;2023-04-05T09:16:37;5.85;;;1.45;;
71048;SDS011;58704;53.358;-6.238;2023-04-05T09:19:06;4.47;;;1.40;;
71048;SDS011;58704;53.358;-6.238;2023-04-05T09:24:36;8.73;;;1.60;;
71048;SDS011;58704;53.358;-6.238;2023-04-05T09:27:13;3.05;;;1.33;;
71048;SDS011;58704;53.358;-6.238;2023-04-05T09:29:42;3.00;;;1.30;;
71048;SDS011;58704;53.358;-6.238;2023-04-05T09:32:11;5.43;;;1.73;;
71048;SDS011;58704;53.358;-6.238;2023-04-05T09:34:51;5.97;;;2.10;;
71048;SDS011;58704;53.358;-6.238;2023-04-05T09:37:20;6.22;;;1.60;;
71048;SDS011;58704;53.358;-6.238;2023-04-05T09:39:48;3.90;;;1.35;;
71048;SDS011;58704;53.358;-6.238;2023-04-05T09:42:43;4.03;;;1.63;;
71048;SDS011;58704;53.358;-6.238;2023-04-05T09:45:19;3.28;;;1.40;;
71048;SDS011;58704;53.358;-6.238;2023-04-05T09:47:53;3.50;;;1.70;;
71048;SDS011;58704;53.358;-6.238;2023-04-05T09:51:03;4.38;;;1.48;;
71048;SDS011;58704;53.358;-6.238;2023-04-05T09:53:55;3.20;;;1.65;;
71048;SDS011;58704;53.358;-6.238;2023-04-05T09:56:30;3.67;;;1.40;;
71048;SDS011;58704;53.358;-6.238;2023-04-05T09:59:20;4.47;;;1.50;;
71048;SDS011;58704;53.358;-6.238;2023-04-05T10:01:52;4.07;;;1.40;;
71048;SDS011;58704;53.358;-6.238;2023-04-05T10:04:23;2.42;;;1.20;;
71048;SDS011;58704;53.358;-6.238;2023-04-05T10:07:01;4.72;;;1.50;;
71048;SDS011;58704;53.358;-6.238;2023-04-05T10:09:39;5.47;;;1.23;;
71048;SDS011;58704;53.358;-6.238;2023-04-05T10:12:09;6.40;;;1.65;;
71048;SDS011;58704;53.358;-6.238;2023-04-05T10:14:40;3.75;;;0.88;;
71048;SDS011;58704;53.358;-6.238;2023-04-05T10:22:43;3.30;;;1.25;;
71048;SDS011;58704;53.358;-6.238;2023-04-05T10:25:38;4.25;;;1.60;;
71048;SDS011;58704;53.358;-6.238;2023-04-05T10:34:03;3.03;;;1.40;;
71048;SDS011;58704;53.358;-6.238;2023-04-05T10:40:03;3.97;;;1.80;;
71048;SDS011;58704;53.358;-6.238;2023-04-05T10:42:45;3.92;;;1.40;;
71048;SDS011;58704;53.358;-6.238;2023-04-05T10:45:20;2.22;;;1.33;;
71048;SDS011;58704;53.358;-6.238;2023-04-05T10:48:23;2.50;;;1.20;;
71048;SDS011;58704;53.358;-6.238;2023-04-05T10:51:07;7.15;;;1.35;;
71048;SDS011;58704;53.358;-6.238;2023-04-05T10:53:34;5.25;;;1.70;;
71048;SDS011;58704;53.358;-6.238;2023-04-05T11:02:37;3.33;;;1.57;;
71048;SDS011;58704;53.358;-6.238;2023-04-05T11:08:20;3.35;;;1.40;;
71048;SDS011;58704;53.358;-6.238;2023-04-05T11:11:12;6.32;;;1.80;;
71048;SDS011;58704;53.358;-6.238;2023-04-05T11:13:53;2.80;;;1.30;;
71048;SDS011;58704;53.358;-6.238;2023-04-05T11:16:38;3.93;;;1.83;;
71048;SDS011;58704;53.358;-6.238;2023-04-05T11:19:04;2.83;;;1.90;;
71048;SDS011;58704;53.358;-6.238;2023-04-05T11:21:40;3.15;;;1.67;;
71048;SDS011;58704;53.358;-6.238;2023-04-05T11:24:09;7.83;;;2.07;;
71048;SDS011;58704;53.358;-6.238;2023-04-05T11:26:56;4.05;;;1.67;;
71048;SDS011;58704;53.358;-6.238;2023-04-05T11:29:45;3.92;;;1.88;;
71048;SDS011;58704;53.358;-6.238;2023-04-05T11:32:16;3.28;;;1.50;;
71048;SDS011;58704;53.358;-6.238;2023-04-05T11:35:05;2.58;;;1.48;;
71048;SDS011;58704;53.358;-6.238;2023-04-05T11:38:04;5.30;;;1.63;;
71048;SDS011;58704;53.358;-6.238;2023-04-05T11:43:08;2.60;;;1.50;;
71048;SDS011;58704;53.358;-6.238;2023-04-05T11:45:40;3.55;;;1.42;;
71048;SDS011;58704;53.358;-6.238;2023-04-05T11:48:11;3.53;;;1.70;;
71048;SDS011;58704;53.358;-6.238;2023-04-05T11:50:38;3.60;;;1.70;;
71048;SDS011;58704;53.358;-6.238;2023-04-05T11:53:16;5.05;;;1.90;;
71048;SDS011;58704;53.358;-6.238;2023-04-05T11:55:46;4.57;;;2.28;;
71048;SDS011;58704;53.358;-6.238;2023-04-05T11:58:15;5.38;;;2.08;;
71048;SDS011;58704;53.358;-6.238;2023-04-05T12:00:42;3.72;;;1.80;;
71048;SDS011;58704;53.358;-6.238;2023-04-05T12:03:13;5.77;;;1.40;;
71048;SDS011;58704;53.358;-6.238;2023-04-05T12:05:46;3.65;;;1.70;;
71048;SDS011;58704;53.358;-6.238;2023-04-05T12:08:16;3.63;;;1.55;;
71048;SDS011;58704;53.358;-6.238;2023-04-05T12:10:42;4.07;;;1.70;;
71048;SDS011;58704;53.358;-6.238;2023-04-05T12:13:07;4.47;;;1.60;;
71048;SDS011;58704;53.358;-6.238;2023-04-05T12:15:39;9.10;;;2.00;;
71048;SDS011;58704;53.358;-6.238;2023-04-05T12:18:09;5.27;;;1.90;;
71048;SDS011;58704;53.358;-6.238;2023-04-05T12:20:36;4.43;;;2.05;;
71048;SDS011;58704;53.358;-6.238;2023-04-05T12:23:02;6.70;;;1.70;;
71048;SDS011;58704;53.358;-6.238;2023-04-05T12:25:28;3.03;;;1.40;;
71048;SDS011;58704;53.358;-6.238;2023-04-05T12:27:54;3.15;;;1.50;;
71048;SDS011;58704;53.358;-6.238;2023-04-05T12:30:20;4.10;;;1.90;;
71048;SDS011;58704;53.358;-6.238;2023-04-05T12:32:50;5.28;;;1.95;;
71048;SDS011;58704;53.358;-6.238;2023-04-05T12:35:21;3.85;;;1.80;;
71048;SDS011;58704;53.358;-6.238;2023-04-05T12:37:56;3.47;;;1.45;;
71048;SDS011;58704;53.358;-6.238;2023-04-05T12:40:22;5.00;;;1.37;;
71048;SDS011;58704;53.358;-6.238;2023-04-05T12:42:48;1.77;;;1.60;;
71048;SDS011;58704;53.358;-6.238;2023-04-05T12:45:16;2.78;;;1.65;;
71048;SDS011;58704;53.358;-6.238;2023-04-05T12:47:49;6.97;;;1.63;;
71048;SDS011;58704;53.358;-6.238;2023-04-05T12:50:26;6.07;;;1.67;;
71048;SDS011;58704;53.358;-6.238;2023-04-05T12:52:53;6.32;;;2.05;;
71048;SDS011;58704;53.358;-6.238;2023-04-05T12:55:19;5.05;;;1.65;;
71048;SDS011;58704;53.358;-6.238;2023-04-05T12:57:47;4.10;;;1.48;;
71048;SDS011;58704;53.358;-6.238;2023-04-05T13:00:16;6.18;;;1.88;;
71048;SDS011;58704;53.358;-6.238;2023-04-05T13:02:42;3.13;;;1.70;;
71048;SDS011;58704;53.358;-6.238;2023-04-05T13:05:08;4.90;;;1.60;;
71048;SDS011;58704;53.358;-6.238;2023-04-05T13:07:33;2.07;;;1.10;;
71048;SDS011;58704;53.358;-6.238;2023-04-05T13:09:59;2.83;;;1.37;;
71048;SDS011;58704;53.358;-6.238;2023-04-05T13:12:24;4.00;;;1.77;;
71048;SDS011;58704;53.358;-6.238;2023-04-05T13:14:50;2.40;;;1.70;;
71048;SDS011;58704;53.358;-6.238;2023-04-05T13:17:15;3.83;;;1.60;;
71048;SDS011;58704;53.358;-6.238;2023-04-05T13:19:41;3.20;;;1.40;;
71048;SDS011;58704;53.358;-6.238;2023-04-05T13:22:06;2.28;;;1.42;;
71048;SDS011;58704;53.358;-6.238;2023-04-05T13:24:31;3.27;;;1.70;;
71048;SDS011;58704;53.358;-6.238;2023-04-05T13:26:57;1.63;;;1.43;;
71048;SDS011;58704;53.358;-6.238;2023-04-05T13:29:22;4.47;;;1.70;;
71048;SDS011;58704;53.358;-6.238;2023-04-05T13:31:48;2.08;;;1.23;;
71048;SDS011;58704;53.358;-6.238;2023-04-05T13:34:13;4.03;;;1.40;;
71048;SDS011;58704;53.358;-6.238;2023-04-05T13:36:38;3.50;;;1.70;;
71048;SDS011;58704;53.358;-6.238;2023-04-05T13:39:04;2.75;;;1.30;;
71048;SDS011;58704;53.358;-6.238;2023-04-05T13:41:30;3.00;;;1.53;;
71048;SDS011;58704;53.358;-6.238;2023-04-05T13:43:55;4.10;;;1.47;;
71048;SDS011;58704;53.358;-6.238;2023-04-05T13:46:20;3.10;;;1.30;;
71048;SDS011;58704;53.358;-6.238;2023-04-05T13:48:46;5.95;;;1.63;;
71048;SDS011;58704;53.358;-6.238;2023-04-05T13:51:11;3.73;;;1.83;;
71048;SDS011;58704;53.358;-6.238;2023-04-05T13:53:37;3.23;;;1.47;;
71048;SDS011;58704;53.358;-6.238;2023-04-05T13:56:02;5.50;;;1.40;;
71048;SDS011;58704;53.358;-6.238;2023-04-05T13:58:27;3.97;;;1.52;;
71048;SDS011;58704;53.358;-6.238;2023-04-05T14:00:53;2.87;;;1.57;;
71048;SDS011;58704;53.358;-6.238;2023-04-05T14:03:18;2.73;;;1.30;;
71048;SDS011;58704;53.358;-6.238;2023-04-05T14:05:44;5.15;;;1.50;;
71048;SDS011;58704;53.358;-6.238;2023-04-05T14:08:10;3.83;;;1.37;;
71048;SDS011;58704;53.358;-6.238;2023-04-05T14:10:35;3.53;;;1.40;;
71048;SDS011;58704;53.358;-6.238;2023-04-05T14:13:00;3.30;;;1.50;;
71048;SDS011;58704;53.358;-6.238;2023-04-05T14:15:26;3.00;;;1.67;;
71048;SDS011;58704;53.358;-6.238;2023-04-05T14:17:51;4.43;;;1.57;;
71048;SDS011;58704;53.358;-6.238;2023-04-05T14:20:17;4.37;;;1.80;;
71048;SDS011;58704;53.358;-6.238;2023-04-05T14:22:42;4.97;;;2.17;;
71048;SDS011;58704;53.358;-6.238;2023-04-05T14:25:07;3.83;;;1.40;;
71048;SDS011;58704;53.358;-6.238;2023-04-05T14:27:33;4.57;;;1.57;;
71048;SDS011;58704;53.358;-6.238;2023-04-05T14:30:01;3.00;;;1.40;;
71048;SDS011;58704;53.358;-6.238;2023-04-05T14:32:27;2.80;;;1.20;;
71048;SDS011;58704;53.358;-6.238;2023-04-05T14:34:52;4.43;;;1.70;;
71048;SDS011;58704;53.358;-6.238;2023-04-05T14:37:17;3.92;;;1.42;;
71048;SDS011;58704;53.358;-6.238;2023-04-05T14:39:43;1.93;;;1.50;;
71048;SDS011;58704;53.358;-6.238;2023-04-05T14:42:08;2.73;;;1.33;;
71048;SDS011;58704;53.358;-6.238;2023-04-05T14:44:34;3.13;;;1.20;;
71048;SDS011;58704;53.358;-6.238;2023-04-05T14:47:00;2.08;;;1.33;;
71048;SDS011;58704;53.358;-6.238;2023-04-05T14:49:25;4.40;;;1.40;;
71048;SDS011;58704;53.358;-6.238;2023-04-05T14:51:51;2.03;;;1.45;;
71048;SDS011;58704;53.358;-6.238;2023-04-05T14:54:16;3.93;;;1.20;;
71048;SDS011;58704;53.358;-6.238;2023-04-05T14:56:42;2.83;;;1.40;;
71048;SDS011;58704;53.358;-6.238;2023-04-05T14:59:08;2.93;;;1.53;;
71048;SDS011;58704;53.358;-6.238;2023-04-05T15:01:33;3.90;;;1.37;;
71048;SDS011;58704;53.358;-6.238;2023-04-05T15:03:58;5.37;;;1.47;;
71048;SDS011;58704;53.358;-6.238;2023-04-05T15:06:24;2.28;;;1.45;;
71048;SDS011;58704;53.358;-6.238;2023-04-05T15:08:50;4.60;;;1.40;;
71048;SDS011;58704;53.358;-6.238;2023-04-05T15:11:15;4.25;;;1.83;;
71048;SDS011;58704;53.358;-6.238;2023-04-05T15:13:41;3.27;;;1.87;;
71048;SDS011;58704;53.358;-6.238;2023-04-05T15:16:06;3.00;;;1.73;;
71048;SDS011;58704;53.358;-6.238;2023-04-05T15:18:31;4.57;;;1.37;;
71048;SDS011;58704;53.358;-6.238;2023-04-05T15:20:57;4.70;;;1.60;;
71048;SDS011;58704;53.358;-6.238;2023-04-05T15:23:22;8.17;;;2.30;;
71048;SDS011;58704;53.358;-6.238;2023-04-05T15:25:48;4.77;;;1.50;;